This is the latest recevied weather packets stored in our database for station/object OM6ABF-12. If no packets are shown the sender has not sent any weather packets the latest 10 day(s).
| Time | Temp. | Humidity | Pressure | Rain* | Wind** | Luminosity | Snow |
|---|---|---|---|---|---|---|---|
| 1777459730 | 8.33° C | 28% | 1029.6 hPa | - | - | - | - |
| 1777458771 | 8.33° C | 28% | 1029.6 hPa | - | - | - | - |
| 1777457815 | 7.78° C | 28% | 1029.6 hPa | - | - | - | - |
| 1777456859 | 7.78° C | 27% | 1029.6 hPa | - | - | - | - |
| 1777455902 | 7.78° C | 26% | 1029.8 hPa | - | - | - | - |
| 1777454945 | 7.22° C | 26% | 1029.7 hPa | - | - | - | - |
| 1777453988 | 7.22° C | 27% | 1029.7 hPa | - | - | - | - |
| 1777453029 | 7.22° C | 26% | 1029.8 hPa | - | - | - | - |
| 1777452072 | 7.78° C | 26% | 1029.8 hPa | - | - | - | - |
| 1777451114 | 8.33° C | 24% | 1029.7 hPa | - | - | - | - |
| 1777450157 | 9.44° C | 23% | 1029.7 hPa | - | - | - | - |
| 1777449197 | 7.78° C | 26% | 1029.7 hPa | - | - | - | - |
| 1777448241 | 8.33° C | 25% | 1029.6 hPa | - | - | - | - |
| 1777447282 | 7.78° C | 26% | 1029.6 hPa | - | - | - | - |
| 1777446323 | 6.67° C | 28% | 1029.5 hPa | - | - | - | - |
| 1777445363 | 5.56° C | 27% | 1029.4 hPa | - | - | - | - |
| 1777444400 | 4.44° C | 31% | 1029.6 hPa | - | - | - | - |
| 1777443438 | 1.67° C | 36% | 1029.5 hPa | - | - | - | - |
| 1777442481 | 0.56° C | 39% | 1029.4 hPa | - | - | - | - |
| 1777441523 | 0.56° C | 39% | 1029.3 hPa | - | - | - | - |
| 1777440564 | 0° C | 41% | 1029.2 hPa | - | - | - | - |
| 1777439606 | 0° C | 41% | 1028.9 hPa | - | - | - | - |
| 1777438657 | -0.56° C | 40% | 1029 hPa | - | - | - | - |
| 1777437692 | -1.11° C | 41% | 1028.8 hPa | - | - | - | - |
| 1777436734 | -1.11° C | 42% | 1028.7 hPa | - | - | - | - |
* Rain since midnight (hover to see other rain measurements)
** Current wind speed in m/s (hover to see current wind gust speed)